Time;durP1;ratioP1;P1;durP2;ratioP2;P2;SDS_P1;SDS_P2;PMS_P1;PMS_P2;Temp;Humidity;BMP_temperature;BMP_pressure;BME280_temperature;BME280_humidity;BME280_pressure;Samples;Min_cycle;Max_cycle;Signal;HPM_P1;HPM_P2
2021/10/23 00:01:36;;;;;;;6.20;3.67;;;11.80;99.90;;;;;;5015089;28;20171;-80
2021/10/23 00:04:01;;;;;;;7.87;3.40;;;11.70;99.90;;;;;;5014316;28;20585;-80
2021/10/23 00:06:27;;;;;;;8.60;3.10;;;11.70;99.90;;;;;;5014691;28;20205;-79
2021/10/23 00:08:53;;;;;;;5.53;3.80;;;11.70;99.90;;;;;;5013583;28;20179;-80
2021/10/23 00:11:18;;;;;;;11.30;2.90;;;11.60;99.90;;;;;;5017326;28;20166;-79
2021/10/23 00:13:44;;;;;;;6.20;3.60;;;11.60;99.90;;;;;;5017723;28;20573;-79
2021/10/23 00:16:10;;;;;;;6.23;3.20;;;11.60;99.90;;;;;;5015587;28;20608;-79
2021/10/23 00:18:36;;;;;;;5.90;2.90;;;11.50;99.90;;;;;;5014485;28;20163;-79
2021/10/23 00:21:03;;;;;;;4.68;3.45;;;11.50;99.90;;;;;;5014148;28;20174;-80
2021/10/23 00:23:28;;;;;;;8.25;3.78;;;11.50;99.90;;;;;;5012693;28;20561;-80
2021/10/23 00:25:54;;;;;;;6.93;3.77;;;11.50;99.90;;;;;;5012593;28;20194;-80
2021/10/23 00:28:20;;;;;;;6.88;4.00;;;11.50;99.90;;;;;;5013837;28;20174;-80
2021/10/23 00:30:46;;;;;;;6.93;4.63;;;11.50;99.90;;;;;;5012956;28;20197;-80
2021/10/23 00:33:12;;;;;;;7.27;4.60;;;11.50;99.90;;;;;;5012503;28;20170;-80
2021/10/23 00:35:37;;;;;;;6.27;4.10;;;11.50;99.90;;;;;;5012618;28;20252;-79
2021/10/23 00:38:03;;;;;;;4.23;3.77;;;11.50;99.90;;;;;;5013624;28;20673;-79
2021/10/23 00:40:29;;;;;;;4.80;3.83;;;11.50;99.90;;;;;;5013605;28;20538;-79
2021/10/23 00:42:56;;;;;;;7.57;3.55;;;11.50;99.90;;;;;;5013101;28;21291;-80
2021/10/23 00:45:22;;;;;;;7.50;4.53;;;11.50;99.90;;;;;;5012445;28;20210;-80
2021/10/23 00:47:49;;;;;;;7.10;3.95;;;11.60;99.90;;;;;;5013466;28;20182;-80
2021/10/23 00:50:14;;;;;;;8.55;4.03;;;11.60;99.90;;;;;;5012215;28;20198;-79
2021/10/23 00:52:41;;;;;;;7.20;4.30;;;11.60;99.90;;;;;;5016794;28;20265;-80
2021/10/23 00:55:08;;;;;;;8.30;4.13;;;11.60;99.90;;;;;;5013503;28;20194;-80
2021/10/23 00:57:34;;;;;;;8.23;4.03;;;11.60;99.90;;;;;;5011926;28;20215;-79
2021/10/23 00:59:59;;;;;;;6.40;3.67;;;11.60;99.90;;;;;;5013571;28;20575;-79
2021/10/23 01:02:25;;;;;;;6.40;4.57;;;11.60;99.90;;;;;;5013745;28;20245;-79
2021/10/23 01:04:51;;;;;;;7.47;5.17;;;11.60;99.90;;;;;;5015069;28;20178;-79
2021/10/23 01:07:17;;;;;;;10.90;4.80;;;11.60;99.90;;;;;;5013541;28;20220;-79
2021/10/23 01:09:44;;;;;;;7.80;4.83;;;11.60;99.90;;;;;;5012706;28;20993;-79
2021/10/23 01:12:11;;;;;;;7.57;5.22;;;11.60;99.90;;;;;;5013122;28;20171;-79
2021/10/23 01:14:39;;;;;;;5.80;4.72;;;11.60;99.90;;;;;;5016642;28;20166;-79
2021/10/23 01:17:05;;;;;;;6.63;4.10;;;11.70;99.90;;;;;;5015848;28;20190;-79
2021/10/23 01:19:31;;;;;;;7.60;4.67;;;11.70;99.90;;;;;;5015675;28;20178;-79
2021/10/23 01:21:57;;;;;;;6.60;4.95;;;11.70;99.90;;;;;;5015607;28;20185;-79
2021/10/23 01:24:23;;;;;;;8.20;5.10;;;11.70;99.90;;;;;;5015211;28;20182;-79
2021/10/23 01:26:50;;;;;;;7.18;5.45;;;11.80;99.90;;;;;;5014871;28;20589;-79
2021/10/23 01:29:18;;;;;;;7.95;5.55;;;11.80;99.90;;;;;;5017730;28;20283;-80
2021/10/23 01:31:45;;;;;;;6.32;5.50;;;11.70;99.90;;;;;;5016266;28;20264;-79
2021/10/23 01:34:19;;;;;;;12.85;5.43;;;11.80;99.90;;;;;;5015135;28;20167;-80
2021/10/23 01:36:48;;;;;;;7.03;5.43;;;11.80;99.90;;;;;;5015528;28;20189;-80
2021/10/23 01:39:14;;;;;;;7.68;5.72;;;11.80;99.90;;;;;;5015937;28;20174;-79
2021/10/23 01:41:40;;;;;;;6.73;5.80;;;11.80;99.90;;;;;;5014465;28;20198;-79
2021/10/23 01:44:13;;;;;;;10.02;5.82;;;11.90;99.90;;;;;;5015610;28;20585;-80
2021/10/23 01:46:39;;;;;;;7.88;5.85;;;11.80;99.90;;;;;;5015086;28;20202;-80
2021/10/23 01:49:06;;;;;;;7.40;4.70;;;11.90;99.90;;;;;;5015352;28;20225;-80
2021/10/23 01:51:33;;;;;;;7.10;5.90;;;11.90;99.90;;;;;;5014878;28;20163;-80
2021/10/23 01:54:09;;;;;;;7.43;6.50;;;11.90;99.90;;;;;;5015141;28;20166;-80
2021/10/23 01:56:37;;;;;;;15.23;6.85;;;11.90;99.90;;;;;;5015355;28;20182;-80
2021/10/23 01:59:03;;;;;;;6.97;5.65;;;11.90;99.90;;;;;;5015327;28;20633;-80
2021/10/23 02:01:29;;;;;;;10.15;6.80;;;11.90;99.90;;;;;;5014394;28;20216;-80
2021/10/23 02:03:55;;;;;;;8.07;6.97;;;11.90;99.90;;;;;;5012936;28;20173;-80
2021/10/23 02:06:21;;;;;;;7.87;6.50;;;11.90;99.90;;;;;;5017077;28;20182;-80
2021/10/23 02:08:47;;;;;;;7.78;6.40;;;11.90;99.90;;;;;;5014673;28;20171;-80
2021/10/23 02:11:14;;;;;;;6.35;5.68;;;11.80;99.90;;;;;;5015059;28;20224;-80
2021/10/23 02:13:39;;;;;;;8.05;6.40;;;11.90;99.90;;;;;;5013319;28;20194;-79
2021/10/23 02:16:06;;;;;;;9.17;6.70;;;11.90;99.90;;;;;;5012294;28;20218;-80
2021/10/23 02:18:32;;;;;;;7.43;6.35;;;11.90;99.90;;;;;;5011892;28;20217;-80
2021/10/23 02:20:57;;;;;;;6.80;6.03;;;11.90;99.90;;;;;;5012278;28;20198;-79
2021/10/23 02:23:23;;;;;;;10.17;6.70;;;11.90;99.90;;;;;;5011115;28;20213;-80
2021/10/23 02:25:49;;;;;;;9.45;7.40;;;11.90;99.90;;;;;;5010908;28;20248;-80
2021/10/23 02:28:17;;;;;;;12.10;7.28;;;11.90;99.90;;;;;;5011901;28;20170;-79
2021/10/23 02:30:43;;;;;;;9.20;7.25;;;11.90;99.90;;;;;;5010859;28;20237;-79
2021/10/23 02:33:09;;;;;;;7.82;6.63;;;11.90;99.90;;;;;;5010539;28;20985;-80
2021/10/23 02:35:34;;;;;;;9.70;7.20;;;11.90;99.90;;;;;;5011741;28;20274;-80
2021/10/23 02:38:00;;;;;;;8.27;7.37;;;11.80;99.90;;;;;;5011910;28;20197;-80
2021/10/23 02:40:31;;;;;;;8.25;7.10;;;11.90;99.90;;;;;;5011969;28;20201;-79
2021/10/23 02:42:57;;;;;;;8.90;7.43;;;11.80;99.90;;;;;;5013512;28;20174;-79
2021/10/23 02:45:23;;;;;;;7.70;6.90;;;11.80;99.90;;;;;;5012169;28;20248;-79
2021/10/23 02:47:49;;;;;;;8.63;7.73;;;11.80;99.90;;;;;;5012042;28;21023;-79
2021/10/23 02:50:14;;;;;;;9.20;7.20;;;11.80;99.90;;;;;;5010446;28;20625;-79
2021/10/23 02:52:40;;;;;;;10.37;7.00;;;11.70;99.90;;;;;;5011591;28;20258;-79
2021/10/23 02:55:06;;;;;;;9.23;6.70;;;11.70;99.90;;;;;;5011723;28;20190;-80
2021/10/23 02:57:32;;;;;;;9.98;7.38;;;11.60;99.90;;;;;;5011667;28;20162;-80
2021/10/23 02:59:57;;;;;;;11.80;7.93;;;11.60;99.90;;;;;;5010560;28;20170;-79
2021/10/23 03:02:23;;;;;;;9.43;7.73;;;11.60;99.90;;;;;;5014519;28;20237;-79
2021/10/23 03:04:49;;;;;;;9.70;7.17;;;11.50;99.90;;;;;;5012381;28;20274;-79
2021/10/23 03:07:15;;;;;;;8.90;7.35;;;11.50;99.90;;;;;;5011325;28;20174;-79
2021/10/23 03:09:41;;;;;;;8.50;6.87;;;11.40;99.90;;;;;;5010841;28;20333;-80
2021/10/23 03:12:06;;;;;;;10.67;8.10;;;11.30;99.90;;;;;;5010474;28;20186;-80
2021/10/23 03:14:32;;;;;;;8.63;7.80;;;11.30;99.90;;;;;;5011253;28;20178;-79
2021/10/23 03:16:58;;;;;;;12.87;8.80;;;11.20;99.90;;;;;;5010830;28;20190;-80
2021/10/23 03:19:23;;;;;;;10.13;7.90;;;11.20;99.90;;;;;;5011760;28;20635;-80
2021/10/23 03:21:49;;;;;;;11.90;8.23;;;11.10;99.90;;;;;;5014886;28;20718;-80
2021/10/23 03:24:15;;;;;;;10.57;8.70;;;11.10;99.90;;;;;;5010197;28;20693;-80
2021/10/23 03:26:40;;;;;;;10.57;8.80;;;11.10;99.90;;;;;;5011478;28;20241;-80
2021/10/23 03:29:06;;;;;;;9.33;8.43;;;11.10;99.90;;;;;;5010416;28;20242;-79
2021/10/23 03:31:32;;;;;;;9.60;8.60;;;11.10;99.90;;;;;;5011118;28;20573;-80
2021/10/23 03:33:59;;;;;;;10.45;8.65;;;11.10;99.90;;;;;;5011105;28;20181;-80
2021/10/23 03:36:24;;;;;;;12.23;10.15;;;11.10;99.90;;;;;;5014596;28;20175;-80
2021/10/23 03:38:50;;;;;;;11.67;9.70;;;11.20;99.90;;;;;;5014909;28;20225;-79
2021/10/23 03:41:16;;;;;;;11.33;9.80;;;11.30;99.90;;;;;;5014995;28;20202;-79
2021/10/23 03:43:42;;;;;;;10.27;9.13;;;11.30;99.90;;;;;;5014465;28;21328;-80
2021/10/23 03:46:08;;;;;;;10.30;9.27;;;11.30;99.90;;;;;;5014939;28;20206;-80
2021/10/23 03:48:34;;;;;;;15.32;10.25;;;11.30;99.90;;;;;;5013811;28;20581;-80
2021/10/23 03:51:00;;;;;;;12.50;9.90;;;11.40;99.90;;;;;;5014727;28;20589;-80
2021/10/23 03:53:26;;;;;;;10.30;8.45;;;11.40;99.90;;;;;;5014590;28;20174;-79
2021/10/23 03:55:52;;;;;;;10.67;9.60;;;11.50;99.90;;;;;;5014532;28;20244;-79
2021/10/23 03:58:18;;;;;;;11.60;9.10;;;11.50;99.90;;;;;;5017372;28;20554;-79
2021/10/23 04:00:44;;;;;;;13.43;9.80;;;11.50;99.90;;;;;;5014445;28;20256;-79
2021/10/23 04:03:09;;;;;;;13.93;10.53;;;11.60;99.90;;;;;;5014142;28;20527;-79
2021/10/23 04:05:35;;;;;;;14.10;10.43;;;11.60;99.90;;;;;;4996677;28;20198;-80
2021/10/23 04:08:02;;;;;;;11.60;10.40;;;11.70;99.90;;;;;;5013323;28;20580;-80
2021/10/23 04:10:28;;;;;;;10.82;9.05;;;11.70;99.90;;;;;;5014216;28;20609;-80
2021/10/23 04:12:54;;;;;;;10.77;9.67;;;11.70;99.90;;;;;;5013926;28;20658;-79
2021/10/23 04:15:20;;;;;;;11.30;9.85;;;11.80;99.90;;;;;;5014372;28;20596;-80
2021/10/23 04:17:46;;;;;;;12.37;10.50;;;11.80;99.90;;;;;;5014108;28;20162;-79
2021/10/23 04:20:12;;;;;;;11.90;10.70;;;11.80;99.90;;;;;;5014230;28;20600;-79
2021/10/23 04:22:39;;;;;;;15.50;11.15;;;11.80;99.90;;;;;;5013894;28;20520;-79
2021/10/23 04:25:06;;;;;;;12.00;10.80;;;11.80;99.90;;;;;;5014253;28;20197;-79
2021/10/23 04:27:32;;;;;;;11.38;10.30;;;11.80;99.90;;;;;;5013990;28;20228;-80
2021/10/23 04:29:58;;;;;;;11.65;10.45;;;11.90;99.90;;;;;;5014096;28;20566;-80
2021/10/23 04:32:23;;;;;;;12.60;11.27;;;11.90;99.90;;;;;;5012657;28;20171;-79
2021/10/23 04:34:50;;;;;;;13.53;11.73;;;11.90;99.90;;;;;;5015621;28;20941;-80
2021/10/23 04:37:16;;;;;;;13.50;11.65;;;11.90;99.90;;;;;;5013799;28;20163;-80
2021/10/23 04:39:41;;;;;;;14.60;11.33;;;11.90;99.90;;;;;;5014008;28;20173;-80
2021/10/23 04:42:07;;;;;;;12.50;10.60;;;11.90;99.90;;;;;;5013615;28;20539;-80
2021/10/23 04:44:33;;;;;;;12.23;10.93;;;11.90;99.90;;;;;;5013475;28;20202;-79
2021/10/23 04:46:58;;;;;;;13.17;10.90;;;11.90;99.90;;;;;;5012990;28;20198;-80
2021/10/23 04:49:24;;;;;;;12.50;11.30;;;11.90;99.90;;;;;;5012252;28;20260;-80
2021/10/23 04:51:50;;;;;;;12.70;11.50;;;11.90;99.90;;;;;;5013885;28;20312;-80
2021/10/23 04:54:16;;;;;;;14.13;10.93;;;11.90;99.90;;;;;;5011859;28;20265;-80
2021/10/23 04:56:41;;;;;;;14.20;10.40;;;12.00;99.90;;;;;;5013494;28;20202;-80
2021/10/23 04:59:07;;;;;;;11.70;10.50;;;12.00;99.90;;;;;;5015226;28;21178;-80
2021/10/23 05:01:33;;;;;;;11.17;10.07;;;12.00;99.90;;;;;;5018252;28;20238;-78
2021/10/23 05:03:58;;;;;;;14.40;11.50;;;12.00;99.90;;;;;;5015780;28;20205;-80
2021/10/23 05:06:24;;;;;;;12.80;11.23;;;12.00;99.90;;;;;;5011876;28;20193;-80
2021/10/23 05:08:50;;;;;;;15.20;11.50;;;12.00;99.90;;;;;;5012520;28;20537;-80
2021/10/23 05:11:15;;;;;;;13.17;11.87;;;12.00;99.90;;;;;;5012784;28;20209;-80
2021/10/23 05:13:41;;;;;;;13.63;11.83;;;11.90;99.90;;;;;;5014156;28;20189;-80
2021/10/23 05:16:07;;;;;;;13.20;11.90;;;11.90;99.90;;;;;;5012942;28;20190;-80
2021/10/23 05:18:32;;;;;;;13.47;11.80;;;11.90;99.90;;;;;;5012186;28;20181;-80
2021/10/23 05:20:58;;;;;;;12.57;11.03;;;11.80;99.90;;;;;;5013025;28;20573;-80
2021/10/23 05:23:24;;;;;;;14.17;11.80;;;11.80;99.90;;;;;;5012733;28;20174;-80
2021/10/23 05:25:50;;;;;;;14.20;12.40;;;11.70;99.90;;;;;;5012949;28;20206;-79
2021/10/23 05:28:15;;;;;;;15.20;11.80;;;11.60;99.90;;;;;;5013502;28;20180;-78
2021/10/23 05:30:41;;;;;;;15.33;12.43;;;11.60;99.90;;;;;;4996275;28;20206;-79
2021/10/23 05:33:07;;;;;;;11.93;10.73;;;11.50;99.90;;;;;;5016110;28;20591;-79
2021/10/23 05:35:33;;;;;;;12.80;11.43;;;11.40;99.90;;;;;;5017306;28;20201;-78
2021/10/23 05:37:59;;;;;;;16.97;11.47;;;11.30;99.90;;;;;;5014771;28;20167;-79
2021/10/23 05:40:24;;;;;;;12.53;10.70;;;11.30;99.90;;;;;;5012580;28;21175;-79
2021/10/23 05:42:50;;;;;;;18.20;11.77;;;11.20;99.90;;;;;;5012828;28;20178;-79
2021/10/23 05:45:16;;;;;;;13.80;11.27;;;11.10;99.90;;;;;;5011589;28;20224;-80
2021/10/23 05:47:42;;;;;;;13.00;11.80;;;11.10;99.90;;;;;;5011314;28;20204;-79
2021/10/23 05:50:11;;;;;;;17.50;12.23;;;11.00;99.90;;;;;;5016477;28;20202;-79
2021/10/23 05:52:38;;;;;;;14.25;10.98;;;11.00;99.90;;;;;;4996643;28;20589;-79
2021/10/23 05:55:04;;;;;;;13.10;11.52;;;11.00;99.90;;;;;;5013262;28;20178;-78
2021/10/23 05:57:30;;;;;;;15.50;12.73;;;10.90;99.90;;;;;;5011313;28;20174;-78
2021/10/23 05:59:56;;;;;;;13.57;12.07;;;10.90;99.90;;;;;;5012602;28;20180;-78
2021/10/23 06:02:25;;;;;;;14.33;12.30;;;10.90;99.90;;;;;;5012069;28;20181;-79
2021/10/23 06:04:56;;;;;;;17.27;12.65;;;10.80;99.90;;;;;;5011083;28;20627;-79
2021/10/23 06:07:24;;;;;;;15.00;12.02;;;10.80;99.90;;;;;;5012295;28;20170;-79
2021/10/23 06:09:50;;;;;;;13.63;11.45;;;10.80;99.90;;;;;;5012252;28;20198;-79
2021/10/23 06:12:17;;;;;;;13.03;11.43;;;10.80;99.90;;;;;;5012689;28;20181;-78
2021/10/23 06:14:43;;;;;;;15.23;11.70;;;10.70;99.90;;;;;;5013289;28;20958;-78
2021/10/23 06:17:09;;;;;;;17.55;12.63;;;10.70;99.90;;;;;;5017393;28;20170;-78
2021/10/23 06:19:37;;;;;;;12.37;10.13;;;10.70;99.90;;;;;;5016022;28;20182;-78
2021/10/23 06:22:04;;;;;;;16.35;13.00;;;10.70;99.90;;;;;;5019201;28;21203;-77
2021/10/23 06:24:29;;;;;;;16.17;11.60;;;10.70;99.90;;;;;;5030698;28;20520;-78
2021/10/23 06:26:55;;;;;;;15.30;12.07;;;10.70;99.90;;;;;;5016429;28;20264;-79
2021/10/23 06:29:21;;;;;;;13.00;10.70;;;10.80;99.90;;;;;;5011472;28;20236;-77
2021/10/23 06:31:47;;;;;;;14.33;11.03;;;10.80;99.90;;;;;;5024692;28;21159;-79
2021/10/23 06:34:12;;;;;;;15.23;12.30;;;10.80;99.90;;;;;;4993490;28;20166;-80
2021/10/23 06:36:38;;;;;;;13.00;11.70;;;10.90;99.90;;;;;;5010502;28;20589;-79
2021/10/23 06:39:04;;;;;;;12.63;11.33;;;10.90;99.90;;;;;;5010775;28;20578;-79
2021/10/23 06:41:30;;;;;;;12.93;10.37;;;11.00;99.90;;;;;;5012159;28;20233;-79
2021/10/23 06:43:56;;;;;;;14.60;11.55;;;11.10;99.90;;;;;;5012053;28;20252;-79
2021/10/23 06:46:24;;;;;;;13.90;11.10;;;11.10;99.90;;;;;;5012157;28;20289;-79
2021/10/23 06:48:50;;;;;;;13.85;10.00;;;11.20;99.90;;;;;;5013397;28;20664;-79
2021/10/23 06:51:16;;;;;;;12.90;11.40;;;11.30;99.90;;;;;;5011720;28;20289;-79
2021/10/23 06:53:42;;;;;;;13.73;10.93;;;11.40;99.90;;;;;;5011575;28;20163;-78
2021/10/23 06:56:08;;;;;;;12.00;10.77;;;11.50;99.90;;;;;;5010441;28;20239;-79
2021/10/23 06:58:34;;;;;;;13.73;11.27;;;11.60;99.90;;;;;;5012508;28;20577;-79
2021/10/23 07:01:00;;;;;;;14.57;11.00;;;11.60;99.90;;;;;;5011202;28;20582;-79
2021/10/23 07:03:26;;;;;;;13.20;11.02;;;11.70;99.90;;;;;;5013625;28;20270;-79
2021/10/23 07:05:53;;;;;;;12.67;11.30;;;11.80;99.90;;;;;;5015199;28;20623;-79
2021/10/23 07:08:19;;;;;;;12.20;10.30;;;11.90;99.90;;;;;;5013648;28;20174;-79
2021/10/23 07:10:45;;;;;;;11.90;9.87;;;12.00;99.90;;;;;;5013618;28;20232;-79
2021/10/23 07:13:10;;;;;;;16.20;10.67;;;12.10;99.90;;;;;;5014667;28;20581;-78
2021/10/23 07:15:37;;;;;;;9.43;8.53;;;12.10;99.90;;;;;;5016400;28;20690;-79
2021/10/23 07:18:03;;;;;;;10.45;9.35;;;12.20;99.90;;;;;;5016293;28;20170;-78
2021/10/23 07:20:29;;;;;;;14.90;9.77;;;12.30;99.90;;;;;;5015951;28;20178;-78
2021/10/23 07:22:56;;;;;;;10.40;9.40;;;12.30;99.90;;;;;;5015492;28;20277;-79
2021/10/23 07:25:22;;;;;;;11.63;9.00;;;12.40;99.90;;;;;;5016531;28;20281;-79
2021/10/23 07:27:47;;;;;;;12.57;10.43;;;12.50;99.90;;;;;;5016193;28;20209;-79
2021/10/23 07:30:13;;;;;;;10.10;9.03;;;12.60;99.90;;;;;;5017336;28;20201;-78
2021/10/23 07:32:41;;;;;;;12.47;9.20;;;12.60;99.90;;;;;;5016811;28;20173;-79
2021/10/23 07:35:08;;;;;;;9.80;8.20;;;12.70;99.90;;;;;;5016999;28;20273;-79
2021/10/23 07:37:34;;;;;;;10.80;9.57;;;12.80;99.90;;;;;;5017142;28;20166;-79
2021/10/23 07:40:02;;;;;;;10.80;8.90;;;12.90;99.90;;;;;;5019942;28;20636;-79
2021/10/23 07:42:29;;;;;;;15.38;9.50;;;13.00;99.90;;;;;;5019013;28;21020;-78
2021/10/23 07:45:02;;;;;;;13.03;9.40;;;13.20;99.90;;;;;;5015793;28;20206;-79
2021/10/23 07:47:28;;;;;;;10.10;7.28;;;13.40;99.90;;;;;;5015270;28;20604;-79
2021/10/23 07:49:54;;;;;;;10.13;7.67;;;13.50;99.90;;;;;;5048697;28;20198;-79
2021/10/23 07:52:20;;;;;;;9.10;8.20;;;13.60;99.90;;;;;;5018053;28;20719;-79
2021/10/23 07:54:47;;;;;;;9.40;7.90;;;13.80;99.90;;;;;;5048500;28;20221;-79
2021/10/23 07:57:13;;;;;;;15.13;8.80;;;13.90;99.90;;;;;;5016263;28;20565;-79
2021/10/23 07:59:39;;;;;;;9.57;7.57;;;14.00;99.90;;;;;;5016313;28;20565;-79
2021/10/23 08:02:05;;;;;;;10.30;7.50;;;14.10;99.90;;;;;;5018199;28;20631;-79
2021/10/23 08:04:32;;;;;;;8.80;6.73;;;14.30;99.90;;;;;;5016986;28;20178;-79
2021/10/23 08:07:02;;;;;;;10.83;7.87;;;14.40;99.90;;;;;;5017324;28;20613;-79
2021/10/23 08:09:35;;;;;;;9.33;7.57;;;14.50;99.90;;;;;;5017340;28;21040;-79
2021/10/23 08:12:03;;;;;;;10.23;8.50;;;14.60;99.90;;;;;;5016556;28;20610;-79
2021/10/23 08:14:29;;;;;;;9.73;8.20;;;14.70;99.90;;;;;;5015152;28;20581;-79
2021/10/23 08:16:56;;;;;;;11.60;9.07;;;14.80;99.90;;;;;;5015312;28;21030;-79
2021/10/23 08:19:23;;;;;;;8.97;6.20;;;14.90;99.90;;;;;;5016785;28;20581;-79
2021/10/23 08:21:49;;;;;;;9.43;7.30;;;15.00;99.90;;;;;;5012228;28;20586;-79
2021/10/23 08:24:15;;;;;;;12.73;7.20;;;15.00;99.90;;;;;;5013513;28;20577;-79
2021/10/23 08:26:42;;;;;;;9.27;6.80;;;15.00;99.90;;;;;;5014725;28;20680;-79
2021/10/23 08:29:09;;;;;;;9.10;6.20;;;15.00;99.90;;;;;;5016648;28;20584;-79
2021/10/23 08:31:35;;;;;;;7.60;5.60;;;15.00;99.90;;;;;;5031886;28;20581;-79
2021/10/23 08:34:01;;;;;;;9.00;6.00;;;15.10;99.90;;;;;;5016398;28;20600;-79
2021/10/23 08:36:28;;;;;;;9.50;6.57;;;15.20;99.90;;;;;;5014982;28;21208;-79
2021/10/23 08:38:54;;;;;;;8.60;5.53;;;15.40;99.90;;;;;;5016184;28;20577;-79
2021/10/23 08:41:20;;;;;;;7.10;5.20;;;15.60;99.90;;;;;;5013959;28;20595;-79
2021/10/23 08:43:47;;;;;;;6.70;5.60;;;15.80;99.90;;;;;;5014279;28;21183;-80
2021/10/23 08:46:21;;;;;;;6.40;4.93;;;16.00;99.90;;;;;;5014343;28;20625;-79
2021/10/23 08:48:52;;;;;;;6.20;5.40;;;16.00;99.90;;;;;;5014528;28;20572;-79
2021/10/23 08:51:20;;;;;;;7.67;5.33;;;16.20;99.90;;;;;;5013283;28;21189;-79
2021/10/23 08:53:48;;;;;;;8.00;5.10;;;16.30;99.90;;;;;;5014493;28;20940;-80
2021/10/23 08:56:13;;;;;;;6.60;4.77;;;16.40;99.90;;;;;;5016701;28;20597;-79
2021/10/23 08:58:41;;;;;;;6.93;4.47;;;16.50;99.90;;;;;;5013260;28;20615;-79
2021/10/23 09:01:09;;;;;;;8.80;5.00;;;16.60;99.90;;;;;;5014328;28;20182;-79
2021/10/23 09:03:36;;;;;;;9.57;5.57;;;16.70;99.90;;;;;;5012859;28;20576;-79
2021/10/23 09:06:02;;;;;;;9.60;6.03;;;16.70;99.90;;;;;;5013223;28;20601;-80
2021/10/23 09:08:28;;;;;;;6.67;5.60;;;16.80;99.90;;;;;;5014099;28;20577;-79
2021/10/23 09:10:57;;;;;;;8.50;5.93;;;16.90;99.90;;;;;;5014282;28;20643;-79
2021/10/23 09:13:30;;;;;;;8.40;5.40;;;17.00;99.90;;;;;;5013950;28;20572;-79
2021/10/23 09:15:57;;;;;;;5.93;5.10;;;17.00;99.90;;;;;;5014013;28;20589;-79
2021/10/23 09:18:44;;;;;;;8.63;4.27;;;17.10;99.90;;;;;;5017371;28;20585;-79
2021/10/23 09:21:20;;;;;;;7.77;4.17;;;17.10;99.90;;;;;;5014334;28;20565;-79
2021/10/23 09:23:47;;;;;;;5.57;4.80;;;17.10;99.90;;;;;;5014230;28;20596;-79
2021/10/23 09:26:35;;;;;;;6.33;4.30;;;17.00;99.90;;;;;;5014676;28;20582;-79
2021/10/23 09:29:24;;;;;;;6.63;3.40;;;17.00;99.90;;;;;;5014204;28;20558;-79
2021/10/23 09:31:52;;;;;;;5.07;3.10;;;16.90;99.90;;;;;;4998886;28;21057;-82
2021/10/23 09:34:19;;;;;;;7.93;4.77;;;17.00;99.90;;;;;;5013230;28;21148;-81
2021/10/23 09:36:53;;;;;;;5.67;4.47;;;16.90;99.90;;;;;;5012603;28;20601;-82
2021/10/23 09:39:27;;;;;;;6.10;5.40;;;16.90;99.90;;;;;;5013574;28;20565;-81
2021/10/23 09:42:16;;;;;;;6.87;3.97;;;16.90;99.90;;;;;;5012632;28;20564;-82
2021/10/23 09:45:03;;;;;;;7.93;4.90;;;16.90;99.90;;;;;;4995814;28;20666;-82
2021/10/23 09:47:47;;;;;;;6.03;3.87;;;16.90;99.90;;;;;;5012334;28;20613;-83
2021/10/23 09:50:22;;;;;;;6.07;3.90;;;16.90;99.90;;;;;;5011275;28;20961;-81
2021/10/23 09:53:06;;;;;;;4.30;3.90;;;16.90;99.90;;;;;;5012688;28;20673;-81
2021/10/23 09:55:53;;;;;;;4.67;3.67;;;17.00;99.90;;;;;;5013172;28;20647;-83
2021/10/23 09:58:26;;;;;;;7.03;3.90;;;17.00;99.90;;;;;;5045331;28;20570;-82
2021/10/23 10:00:54;;;;;;;7.10;4.37;;;17.10;99.90;;;;;;5013392;28;20569;-82
2021/10/23 10:03:24;;;;;;;6.53;4.70;;;17.20;99.90;;;;;;5013214;28;20573;-82
2021/10/23 10:05:54;;;;;;;6.40;4.40;;;17.20;99.90;;;;;;5013870;28;20597;-82
2021/10/23 10:08:21;;;;;;;5.73;3.90;;;17.30;99.90;;;;;;5015119;28;20593;-83
2021/10/23 10:10:48;;;;;;;12.87;8.70;;;17.40;99.90;;;;;;5015938;28;20628;-82
2021/10/23 10:13:23;;;;;;;6.97;5.83;;;17.50;99.90;;;;;;5017175;28;20607;-82
2021/10/23 10:15:53;;;;;;;7.90;5.17;;;17.50;99.90;;;;;;5016954;28;20612;-82
2021/10/23 10:18:21;;;;;;;6.50;3.83;;;17.60;99.90;;;;;;5014950;28;20600;-84
2021/10/23 10:20:58;;;;;;;6.50;4.23;;;17.70;99.90;;;;;;5015046;28;20593;-84
2021/10/23 10:23:36;;;;;;;5.90;4.40;;;17.70;99.90;;;;;;5016371;28;20669;-83
2021/10/23 10:26:18;;;;;;;5.97;3.77;;;17.80;99.90;;;;;;5013579;28;20606;-84
2021/10/23 10:29:11;;;;;;;6.00;3.60;;;17.80;99.90;;;;;;5046257;28;20576;-85
2021/10/23 10:32:16;;;;;;;5.77;3.80;;;17.90;99.90;;;;;;5012487;28;20935;-85
2021/10/23 10:42:59;;;;;;;4.40;3.63;;;18.00;99.90;;;;;;5012548;28;20585;-84
2021/10/23 10:45:51;;;;;;;5.27;3.50;;;18.00;99.90;;;;;;5011614;28;20990;-83
2021/10/23 10:48:21;;;;;;;5.30;2.70;;;18.00;99.90;;;;;;5012848;28;20580;-83
2021/10/23 10:50:48;;;;;;;7.60;3.10;;;17.90;99.90;;;;;;5011353;28;20636;-83
2021/10/23 10:53:20;;;;;;;4.80;2.67;;;17.90;99.90;;;;;;5012203;28;20597;-84
2021/10/23 10:55:51;;;;;;;5.67;2.77;;;17.80;99.90;;;;;;5012951;28;20584;-83
2021/10/23 10:58:18;;;;;;;5.60;2.90;;;17.80;99.90;;;;;;5012785;28;20566;-82
2021/10/23 11:00:47;;;;;;;6.20;3.00;;;17.70;99.90;;;;;;5013286;28;20668;-83
2021/10/23 11:03:32;;;;;;;3.10;1.90;;;17.70;99.90;;;;;;5012322;28;20615;-81
2021/10/23 11:06:35;;;;;;;2.63;1.80;;;17.70;99.90;;;;;;5016345;28;20955;-80
2021/10/23 11:09:16;;;;;;;5.13;1.67;;;17.60;99.90;;;;;;5017740;28;21007;-80
2021/10/23 11:11:45;;;;;;;5.23;2.17;;;17.50;99.90;;;;;;5017543;28;20585;-80
2021/10/23 11:14:21;;;;;;;3.67;2.10;;;17.50;99.90;;;;;;5017391;28;20568;-81
2021/10/23 11:16:53;;;;;;;3.70;3.27;;;17.40;99.90;;;;;;5018155;28;20589;-80
2021/10/23 11:19:52;;;;;;;8.13;3.33;;;17.40;99.90;;;;;;5015246;28;20577;-85
2021/10/23 11:22:34;;;;;;;7.13;2.40;;;17.30;99.90;;;;;;4994880;28;20613;-84
2021/10/23 11:25:08;;;;;;;6.00;2.50;;;17.30;99.90;;;;;;5015030;28;20634;-85
2021/10/23 11:27:37;;;;;;;7.93;3.30;;;17.30;99.90;;;;;;5013773;28;20665;-85
2021/10/23 11:30:11;;;;;;;4.77;3.53;;;17.30;99.90;;;;;;5013396;28;20617;-86
2021/10/23 11:32:46;;;;;;;4.73;2.97;;;17.30;99.90;;;;;;5013181;28;20988;-86
2021/10/23 11:35:13;;;;;;;5.93;4.37;;;17.40;99.90;;;;;;5049724;22;21117;-75
2021/10/23 11:37:39;;;;;;;5.73;3.30;;;17.40;99.90;;;;;;5060716;28;20661;-74
2021/10/23 11:40:12;;;;;;;8.63;3.83;;;17.50;99.90;;;;;;5069319;28;20578;-75
2021/10/23 11:42:49;;;;;;;4.50;2.47;;;17.50;99.90;;;;;;5049344;28;20567;-75
2021/10/23 11:45:27;;;;;;;3.43;1.90;;;17.50;99.90;;;;;;5036213;28;20635;-75
2021/10/23 11:48:00;;;;;;;3.50;1.33;;;17.60;99.90;;;;;;5030846;28;20572;-76
2021/10/23 11:50:54;;;;;;;6.70;1.70;;;17.60;99.90;;;;;;5013235;28;20663;-75
2021/10/23 11:53:24;;;;;;;4.70;2.03;;;17.60;99.90;;;;;;5027875;28;20696;-76
2021/10/23 11:55:55;;;;;;;5.80;4.67;;;17.60;99.90;;;;;;5030136;28;20600;-76
2021/10/23 11:58:26;;;;;;;4.50;4.10;;;17.60;99.90;;;;;;5033252;28;20565;-75
2021/10/23 12:01:10;;;;;;;4.30;3.57;;;17.40;99.90;;;;;;5034292;28;21352;-75
2021/10/23 12:03:41;;;;;;;5.87;3.70;;;17.40;99.90;;;;;;5032969;28;20619;-75
2021/10/23 12:06:36;;;;;;;7.67;4.43;;;17.40;99.90;;;;;;5032793;28;20584;-75
2021/10/23 12:09:18;;;;;;;7.77;4.60;;;17.30;99.90;;;;;;5034149;28;20591;-76
2021/10/23 12:11:44;;;;;;;8.53;4.13;;;17.20;99.90;;;;;;5034399;28;20564;-76
2021/10/23 12:14:14;;;;;;;6.53;3.57;;;17.20;99.90;;;;;;5032447;28;20592;-76
2021/10/23 12:16:43;;;;;;;7.30;3.63;;;17.20;99.90;;;;;;5032732;28;20651;-76
2021/10/23 12:19:20;;;;;;;5.07;2.83;;;17.20;99.90;;;;;;5032866;28;20564;-76
2021/10/23 12:22:18;;;;;;;6.70;3.60;;;17.10;99.90;;;;;;5033807;28;20625;-76
2021/10/23 12:24:50;;;;;;;5.37;4.03;;;17.10;99.90;;;;;;5032747;28;20588;-76
2021/10/23 12:27:30;;;;;;;5.20;4.43;;;17.20;99.90;;;;;;5033897;28;20560;-76
2021/10/23 12:30:03;;;;;;;4.87;3.67;;;17.10;99.90;;;;;;5033528;28;20623;-76
2021/10/23 12:32:38;;;;;;;5.20;3.20;;;17.10;99.90;;;;;;5033393;28;20568;-76
2021/10/23 12:35:11;;;;;;;7.10;3.17;;;17.10;99.90;;;;;;5033733;28;20616;-75
2021/10/23 12:37:44;;;;;;;4.63;3.43;;;17.20;99.90;;;;;;5033764;28;20668;-73
2021/10/23 12:40:32;;;;;;;5.03;3.23;;;17.20;99.90;;;;;;5033740;28;20615;-74
2021/10/23 12:43:05;;;;;;;5.43;3.23;;;17.20;99.90;;;;;;5033418;28;20626;-74
2021/10/23 12:45:37;;;;;;;5.83;3.30;;;17.20;99.90;;;;;;5032463;28;20604;-75
2021/10/23 12:48:08;;;;;;;4.47;3.60;;;17.10;99.90;;;;;;5033517;28;20587;-73
2021/10/23 12:50:35;;;;;;;4.90;3.63;;;17.10;99.90;;;;;;5033551;28;20620;-73
2021/10/23 12:53:01;;;;;;;4.93;3.00;;;17.10;99.90;;;;;;5031780;28;20564;-74
2021/10/23 12:55:27;;;;;;;5.60;3.13;;;17.10;99.90;;;;;;5033360;28;21157;-74
2021/10/23 12:57:53;;;;;;;4.33;3.27;;;17.10;99.90;;;;;;5015476;28;20587;-73